Time;durP1;ratioP1;P1;durP2;ratioP2;P2;SDS_P1;SDS_P2;PMS_P1;PMS_P2;Temp;Humidity;BMP_temperature;BMP_pressure;BME280_temperature;BME280_humidity;BME280_pressure;Samples;Min_cycle;Max_cycle;Signal;HPM_P1;HPM_P2
2022/11/02 00:01:43;;;;;;;72.58;37.33;;;;;;;12.02;100.00;100869.21;1701264;82;25928;-78
2022/11/02 00:04:10;;;;;;;73.07;39.27;;;;;;;12.05;100.00;100875.56;1692358;82;25910;-78
2022/11/02 00:06:36;;;;;;;72.62;39.98;;;;;;;12.04;100.00;100874.41;1691816;83;25899;-78
2022/11/02 00:09:03;;;;;;;77.47;38.85;;;;;;;12.03;100.00;100877.60;1685374;84;26252;-78
2022/11/02 00:11:29;;;;;;;72.05;39.27;;;;;;;12.02;100.00;100881.30;1687430;84;27462;-78
2022/11/02 00:13:56;;;;;;;70.65;37.78;;;;;;;12.01;100.00;100876.12;1669837;84;25835;-78
2022/11/02 00:16:24;;;;;;;73.12;38.23;;;;;;;12.01;100.00;100883.67;1672809;85;25809;-78
2022/11/02 00:18:57;;;;;;;75.12;38.60;;;;;;;12.04;100.00;100881.13;1670036;84;25832;-77
2022/11/02 00:21:26;;;;;;;77.30;40.58;;;;;;;12.05;100.00;100871.53;1663318;84;25330;-78
2022/11/02 00:23:55;;;;;;;80.30;41.33;;;;;;;12.07;100.00;100871.33;1673094;84;27452;-77
2022/11/02 00:26:21;;;;;;;86.22;43.23;;;;;;;12.10;100.00;100868.28;1668051;85;25905;-78
2022/11/02 00:28:48;;;;;;;90.87;45.60;;;;;;;12.12;100.00;100871.61;1641434;85;25786;-78
2022/11/02 00:31:14;;;;;;;84.22;41.75;;;;;;;12.14;100.00;100869.56;1667729;84;26525;-77
2022/11/02 00:33:41;;;;;;;88.00;44.58;;;;;;;12.16;100.00;100872.38;1665267;84;25838;-77
2022/11/02 00:36:08;;;;;;;85.25;42.40;;;;;;;12.17;100.00;100879.40;1658516;84;27484;-78
2022/11/02 00:38:34;;;;;;;84.83;43.48;;;;;;;12.18;100.00;100873.02;1669433;84;26209;-78
2022/11/02 00:41:01;;;;;;;88.62;45.35;;;;;;;12.19;100.00;100872.48;1692604;82;25681;-78
2022/11/02 00:43:27;;;;;;;83.42;43.15;;;;;;;12.19;100.00;100870.64;1691503;82;26239;-78
2022/11/02 00:45:54;;;;;;;84.55;44.90;;;;;;;12.20;100.00;100870.13;1700177;82;25276;-77
2022/11/02 00:48:21;;;;;;;88.70;46.13;;;;;;;12.22;100.00;100874.30;1692463;82;27517;-78
2022/11/02 00:50:48;;;;;;;84.85;43.85;;;;;;;12.24;100.00;100868.73;1694315;83;25899;-77
2022/11/02 00:53:15;;;;;;;97.30;46.53;;;;;;;12.26;100.00;100870.20;1648682;85;25562;-78
2022/11/02 00:55:43;;;;;;;92.05;45.45;;;;;;;12.28;100.00;100864.64;1657564;85;26227;-77
2022/11/02 00:58:10;;;;;;;91.32;46.20;;;;;;;12.30;100.00;100861.25;1703504;81;26441;-77
2022/11/02 01:00:36;;;;;;;94.77;46.60;;;;;;;12.32;100.00;100868.59;1713869;82;27462;-77
2022/11/02 01:03:02;;;;;;;96.22;47.03;;;;;;;12.34;100.00;100857.15;1709965;82;25997;-77
2022/11/02 01:05:29;;;;;;;93.12;47.05;;;;;;;12.36;100.00;100861.81;1721160;81;25747;-78
2022/11/02 01:07:56;;;;;;;104.38;49.45;;;;;;;12.36;100.00;100868.03;1713480;82;25521;-77
2022/11/02 01:10:22;;;;;;;94.40;46.53;;;;;;;12.36;100.00;100867.19;1715468;82;25792;-77
2022/11/02 01:12:48;;;;;;;92.22;45.98;;;;;;;12.36;100.00;100865.34;1722078;81;27443;-77
2022/11/02 01:15:15;;;;;;;93.17;44.65;;;;;;;12.37;100.00;100871.55;1694917;83;25848;-78
2022/11/02 01:17:41;;;;;;;92.62;45.48;;;;;;;12.33;100.00;100875.65;1703705;82;25875;-78
2022/11/02 01:20:08;;;;;;;97.25;47.65;;;;;;;12.31;100.00;100881.22;1749542;80;25865;-77
2022/11/02 01:22:35;;;;;;;104.30;48.40;;;;;;;12.29;100.00;100884.61;1760000;80;25753;-77
2022/11/02 01:25:01;;;;;;;99.47;48.87;;;;;;;12.31;100.00;100874.50;1753341;80;28258;-78
2022/11/02 01:27:27;;;;;;;101.92;47.85;;;;;;;12.33;100.00;100871.62;1751966;80;26083;-77
2022/11/02 01:29:54;;;;;;;99.42;48.33;;;;;;;12.32;100.00;100867.25;1751598;80;25861;-78
2022/11/02 01:32:20;;;;;;;101.95;50.85;;;;;;;12.34;100.00;100866.55;1759625;80;25832;-78
2022/11/02 01:34:46;;;;;;;98.47;47.33;;;;;;;12.35;100.00;100870.91;1753080;80;25863;-78
2022/11/02 01:37:14;;;;;;;102.10;49.60;;;;;;;12.36;100.00;100871.22;1756619;80;28218;-77
2022/11/02 01:39:41;;;;;;;103.58;49.58;;;;;;;12.34;100.00;100864.70;1747486;80;25784;-78
2022/11/02 01:42:23;;;;;;;100.12;47.75;;;;;;;12.34;100.00;100863.36;1741948;80;25716;-78
2022/11/02 01:44:49;;;;;;;105.25;50.23;;;;;;;12.36;100.00;100862.66;1750277;80;25775;-77
2022/11/02 01:47:27;;;;;;;106.43;50.90;;;;;;;12.40;100.00;100861.78;1745612;80;25746;-77
2022/11/02 01:50:08;;;;;;;108.22;51.53;;;;;;;12.43;100.00;100851.13;1751928;80;27452;-77
2022/11/02 01:52:37;;;;;;;109.72;51.13;;;;;;;12.46;100.00;100856.14;1754620;80;26406;-78
2022/11/02 01:55:28;;;;;;;105.45;49.65;;;;;;;12.46;100.00;100856.14;1749966;80;25722;-77
2022/11/02 01:58:02;;;;;;;106.32;51.28;;;;;;;12.46;100.00;100858.82;1743184;80;25762;-78
2022/11/02 02:00:28;;;;;;;99.90;48.98;;;;;;;12.45;100.00;100861.17;1753613;80;25665;-77
2022/11/02 02:05:42;;;;;;;113.83;53.15;;;;;;;12.50;100.00;100862.28;1798493;77;26342;-78
2022/11/02 02:08:11;;;;;;;101.07;50.83;;;;;;;12.48;100.00;100873.73;1809776;77;25826;-77
2022/11/02 02:10:37;;;;;;;111.57;53.85;;;;;;;12.49;100.00;100872.69;1773847;78;28239;-78
2022/11/02 02:13:06;;;;;;;110.85;52.93;;;;;;;12.49;100.00;100878.60;1770467;80;26512;-78
2022/11/02 02:16:01;;;;;;;108.70;52.67;;;;;;;12.51;100.00;100872.52;1781829;79;26506;-77
2022/11/02 02:18:47;;;;;;;107.22;50.58;;;;;;;12.51;100.00;100874.67;1786615;78;25824;-79
2022/11/02 02:21:32;;;;;;;117.35;53.08;;;;;;;12.50;100.00;100882.43;1788770;79;25896;-80
2022/11/02 02:24:33;;;;;;;113.62;52.45;;;;;;;12.49;100.00;100878.60;1810849;77;27520;-79
2022/11/02 02:27:17;;;;;;;110.65;51.33;;;;;;;12.49;100.00;100882.63;1784318;79;25698;-79
2022/11/02 02:30:05;;;;;;;125.75;55.80;;;;;;;12.47;100.00;100881.45;1706317;79;26583;-78
2022/11/02 02:32:54;;;;;;;118.57;52.75;;;;;;;12.47;100.00;100880.12;1822713;77;26363;-78
2022/11/02 02:35:41;;;;;;;113.30;54.05;;;;;;;12.47;100.00;100866.68;1834696;77;25710;-79
2022/11/02 02:38:29;;;;;;;118.28;53.75;;;;;;;12.49;100.00;100865.17;1833843;77;27428;-78
2022/11/02 02:41:10;;;;;;;121.37;56.45;;;;;;;12.48;100.00;100872.89;1799259;77;26032;-78
2022/11/02 02:43:45;;;;;;;140.18;59.15;;;;;;;12.48;100.00;100871.05;1761707;78;26454;-78
2022/11/02 02:46:26;;;;;;;122.92;56.00;;;;;;;12.51;100.00;100872.52;1778272;77;25760;-78
2022/11/02 02:48:56;;;;;;;118.90;57.03;;;;;;;12.52;100.00;100864.27;1771314;79;25942;-79
2022/11/02 02:51:29;;;;;;;123.45;58.50;;;;;;;12.53;100.00;100862.41;1808017;77;28286;-78
2022/11/02 02:54:05;;;;;;;121.00;55.48;;;;;;;12.54;100.00;100862.71;1819620;77;26438;-78
2022/11/02 02:56:40;;;;;;;122.82;56.10;;;;;;;12.54;100.00;100856.84;1822066;77;25782;-78
2022/11/02 02:59:28;;;;;;;127.22;58.28;;;;;;;12.55;100.00;100860.36;1829779;77;26430;-79
2022/11/02 03:01:56;;;;;;;129.57;57.15;;;;;;;12.54;100.00;100859.52;1824393;77;26321;-78
2022/11/02 03:04:24;;;;;;;124.40;57.65;;;;;;;12.53;100.00;100875.31;1827596;77;27434;-78
2022/11/02 03:06:55;;;;;;;130.18;57.95;;;;;;;12.51;100.00;100877.89;1832858;77;25883;-78
2022/11/02 03:09:33;;;;;;;129.03;59.05;;;;;;;12.51;100.00;100881.92;1828804;77;25750;-78
2022/11/02 03:12:32;;;;;;;138.43;62.45;;;;;;;12.51;100.00;100873.33;1817767;77;26505;-78
2022/11/02 03:15:22;;;;;;;129.85;56.60;;;;;;;12.53;100.00;100879.88;1819131;77;26047;-79
2022/11/02 03:18:29;;;;;;;148.50;61.53;;;;;;;12.52;100.00;100877.70;1816676;78;27467;-78
2022/11/02 03:21:17;;;;;;;139.30;56.90;;;;;;;12.54;100.00;100874.81;1816420;77;25761;-79
2022/11/02 03:23:55;;;;;;;132.57;55.95;;;;;;;12.52;100.00;100877.70;1826964;77;25821;-78
2022/11/02 03:26:29;;;;;;;128.62;55.60;;;;;;;12.51;100.00;100880.05;1767193;79;25444;-78
2022/11/02 03:29:18;;;;;;;128.23;56.08;;;;;;;12.51;100.00;100888.11;1779189;79;25770;-79
2022/11/02 03:31:59;;;;;;;118.60;55.00;;;;;;;12.53;100.00;100881.22;1780400;78;28277;-78
2022/11/02 03:34:41;;;;;;;;;;;;;;;12.53;100.00;100884.72;1794555;78;25752;-78
2022/11/02 03:37:22;;;;;;;127.10;55.55;;;;;;;12.51;100.00;100892.14;1799372;78;25823;-79
2022/11/02 03:40:12;;;;;;;115.95;52.38;;;;;;;12.49;100.00;100888.01;1798391;78;25909;-78
2022/11/02 03:42:40;;;;;;;;;;;;;;;12.48;100.00;100889.02;1777953;80;25767;-79
2022/11/02 03:45:15;;;;;;;123.85;55.12;;;;;;;12.46;100.00;100890.56;1780907;79;27490;-78
2022/11/02 03:47:47;;;;;;;130.75;58.60;;;;;;;12.45;100.00;100889.39;1792089;78;25869;-79
2022/11/02 03:50:15;;;;;;;;;;;;;;;12.46;100.00;100895.09;1795928;78;25771;-79
2022/11/02 03:52:46;;;;;;;129.07;56.45;;;;;;;12.46;100.00;100891.91;1789402;78;25855;-79
2022/11/02 03:55:21;;;;;;;130.95;57.80;;;;;;;12.45;100.00;100896.10;1784896;78;25887;-78
2022/11/02 03:57:50;;;;;;;130.55;58.60;;;;;;;12.47;100.00;100893.55;1795139;78;27436;-78
2022/11/02 04:00:24;;;;;;;126.70;60.08;;;;;;;12.48;100.00;100892.55;1803776;78;25902;-79
2022/11/02 04:02:57;;;;;;;129.12;60.30;;;;;;;12.49;100.00;100894.72;1803460;78;25838;-78
2022/11/02 04:05:30;;;;;;;132.78;56.68;;;;;;;12.52;100.00;100897.01;1787197;79;25733;-78
2022/11/02 04:16:15;;;;;;;117.47;54.15;;;;;;;12.52;100.00;100905.91;1796131;78;26428;-79
2022/11/02 04:21:28;;;;;;;119.40;54.77;;;;;;;12.52;100.00;100903.73;1750356;80;25774;-78
2022/11/02 04:26:40;;;;;;;116.97;55.52;;;;;;;12.56;100.00;100905.84;1753429;80;26409;-79
2022/11/02 04:29:06;;;;;;;112.52;51.80;;;;;;;12.58;100.00;100912.36;1796509;78;26419;-78
2022/11/02 04:31:33;;;;;;;120.05;55.45;;;;;;;12.58;100.00;100921.26;1790474;78;25914;-79
2022/11/02 04:33:59;;;;;;;102.85;51.33;;;;;;;12.59;100.00;100916.22;1789005;78;25944;-79
2022/11/02 04:36:29;;;;;;;104.00;51.23;;;;;;;12.61;100.00;100915.52;1781038;79;26927;-78
2022/11/02 04:38:55;;;;;;;103.12;51.63;;;;;;;12.62;100.00;100913.63;1772776;79;25771;-79
2022/11/02 04:41:42;;;;;;;110.57;50.23;;;;;;;12.61;100.00;100916.02;1741209;80;25752;-79
2022/11/02 04:44:25;;;;;;;108.87;51.30;;;;;;;12.62;100.00;100921.19;1743918;80;26199;-79
2022/11/02 04:46:53;;;;;;;123.87;54.23;;;;;;;12.63;100.00;100922.03;1741917;80;26472;-79
2022/11/02 04:49:21;;;;;;;107.05;51.77;;;;;;;12.62;100.00;100923.04;1750196;80;27441;-79
2022/11/02 04:51:48;;;;;;;124.25;55.33;;;;;;;12.61;100.00;100924.92;1751455;80;26184;-79
2022/11/02 04:54:14;;;;;;;127.85;56.65;;;;;;;12.63;100.00;100926.06;1753758;80;25740;-79
2022/11/02 04:56:40;;;;;;;116.62;54.88;;;;;;;12.65;100.00;100917.30;1758447;80;25727;-79
2022/11/02 04:59:07;;;;;;;116.15;55.33;;;;;;;12.66;100.00;100918.97;1751938;80;25782;-79
2022/11/02 05:01:35;;;;;;;108.25;54.23;;;;;;;12.65;100.00;100926.20;1742074;80;27470;-78
2022/11/02 05:04:01;;;;;;;117.60;55.73;;;;;;;12.68;100.00;100930.36;1748142;80;26338;-78
2022/11/02 05:06:29;;;;;;;113.42;53.38;;;;;;;12.68;100.00;100928.48;1767883;78;26409;-79
2022/11/02 05:08:57;;;;;;;118.95;55.80;;;;;;;12.68;100.00;100935.20;1776644;78;25831;-78
2022/11/02 05:11:23;;;;;;;120.50;57.67;;;;;;;12.68;100.00;100935.73;1785422;78;26401;-79
2022/11/02 05:13:50;;;;;;;117.17;55.52;;;;;;;12.68;100.00;100939.23;1820084;77;27433;-79
2022/11/02 05:16:17;;;;;;;116.15;54.40;;;;;;;12.69;100.00;100943.59;1804427;78;25739;-78
2022/11/02 05:18:43;;;;;;;110.37;56.02;;;;;;;12.71;100.00;100942.05;1811637;77;25774;-79
2022/11/02 05:21:11;;;;;;;122.75;54.18;;;;;;;12.70;100.00;100939.87;1799541;78;25980;-79
2022/11/02 05:23:38;;;;;;;117.70;54.10;;;;;;;12.71;100.00;100940.20;1812993;77;26370;-79
2022/11/02 05:26:09;;;;;;;114.65;55.83;;;;;;;12.72;100.00;100943.23;1813862;77;26894;-78
2022/11/02 05:28:39;;;;;;;122.90;53.98;;;;;;;12.73;100.00;100944.03;1797849;77;25959;-79
2022/11/02 05:31:06;;;;;;;123.02;55.40;;;;;;;12.73;100.00;100944.03;1806949;78;25880;-79
2022/11/02 05:33:34;;;;;;;111.30;52.58;;;;;;;12.73;100.00;100946.22;1807073;77;26375;-79
2022/11/02 05:36:03;;;;;;;116.37;55.67;;;;;;;12.73;100.00;100949.41;1820586;78;25782;-79
2022/11/02 05:38:30;;;;;;;107.52;50.28;;;;;;;12.76;100.00;100955.77;1822748;77;27420;-78
2022/11/02 05:40:59;;;;;;;110.35;51.37;;;;;;;12.80;100.00;100965.10;1820780;77;25701;-79
2022/11/02 05:43:27;;;;;;;106.17;51.00;;;;;;;12.81;100.00;100960.06;1805859;78;25777;-79
2022/11/02 05:45:57;;;;;;;103.58;49.15;;;;;;;12.83;100.00;100962.84;1787864;79;25740;-78
2022/11/02 05:48:25;;;;;;;98.87;50.38;;;;;;;12.85;100.00;100958.64;1795932;78;26191;-77
2022/11/02 05:51:02;;;;;;;99.87;45.50;;;;;;;12.85;100.00;100962.14;1785231;78;27436;-78
2022/11/02 05:53:36;;;;;;;90.17;44.08;;;;;;;12.87;100.00;100973.53;1783990;79;25822;-77
2022/11/02 05:56:02;;;;;;;99.52;45.33;;;;;;;12.90;100.00;100966.94;1792389;78;25951;-79
2022/11/02 05:58:29;;;;;;;95.42;43.58;;;;;;;12.91;100.00;100970.81;1795763;78;25786;-78
2022/11/02 06:01:01;;;;;;;92.85;42.62;;;;;;;12.92;100.00;100966.23;1810576;78;25724;-79
2022/11/02 06:03:27;;;;;;;91.47;41.40;;;;;;;12.92;100.00;100972.45;1802918;77;28277;-78
2022/11/02 06:06:02;;;;;;;79.30;39.13;;;;;;;12.94;100.00;100976.28;1814335;78;26520;-79
2022/11/02 06:08:35;;;;;;;79.82;39.88;;;;;;;12.95;100.00;100980.66;1819741;77;25698;-79
2022/11/02 06:11:07;;;;;;;78.15;40.80;;;;;;;12.95;100.00;100984.19;1774805;77;25801;-78
2022/11/02 06:13:34;;;;;;;80.15;40.45;;;;;;;12.96;100.00;100982.30;1787491;78;25573;-79
2022/11/02 06:16:03;;;;;;;78.85;40.67;;;;;;;12.99;100.00;100983.27;1777102;78;27518;-79
2022/11/02 06:18:30;;;;;;;79.27;40.38;;;;;;;13.01;100.00;100981.22;1792146;78;25745;-78
2022/11/02 06:20:58;;;;;;;77.78;39.48;;;;;;;13.02;100.00;100985.05;1783727;79;25897;-78
2022/11/02 06:23:25;;;;;;;74.25;38.00;;;;;;;13.05;100.00;100979.84;1790612;78;26221;-79
2022/11/02 06:25:53;;;;;;;67.85;36.63;;;;;;;13.06;100.00;100980.17;1782663;79;25857;-80
2022/11/02 06:28:22;;;;;;;70.75;37.60;;;;;;;13.07;100.00;100972.41;1776673;78;27462;-79
2022/11/02 06:30:49;;;;;;;73.10;36.68;;;;;;;13.10;100.00;100976.91;1771210;78;25953;-79
2022/11/02 06:33:17;;;;;;;71.40;37.28;;;;;;;13.14;100.00;100984.91;1770233;78;26600;-79
2022/11/02 06:35:48;;;;;;;74.30;39.38;;;;;;;13.15;100.00;100975.79;1772727;78;25847;-79
2022/11/02 06:38:15;;;;;;;72.17;36.95;;;;;;;13.20;100.00;100987.83;1795810;78;25814;-79
2022/11/02 06:40:44;;;;;;;74.27;39.05;;;;;;;13.21;100.00;100981.44;1802282;78;27423;-79
2022/11/02 06:43:11;;;;;;;67.32;36.63;;;;;;;13.23;100.00;100984.76;1804819;78;25797;-78
2022/11/02 06:45:37;;;;;;;66.95;36.63;;;;;;;13.23;100.00;100980.72;1793984;77;25605;-78
2022/11/02 06:48:03;;;;;;;69.60;35.98;;;;;;;13.25;100.00;100989.42;1802605;78;25823;-79
2022/11/02 06:50:30;;;;;;;62.23;35.75;;;;;;;13.27;100.00;100992.25;1809200;78;26596;-79
2022/11/02 06:52:56;;;;;;;65.87;35.75;;;;;;;13.28;100.00;100989.86;1786132;78;27445;-78
2022/11/02 06:55:23;;;;;;;68.67;36.73;;;;;;;13.26;100.00;100985.19;1796060;78;26042;-79
2022/11/02 06:57:49;;;;;;;70.35;38.30;;;;;;;13.26;100.00;100992.45;1787628;78;25768;-79
2022/11/02 07:00:16;;;;;;;62.78;34.03;;;;;;;13.27;100.00;100992.25;1792679;78;25829;-79
2022/11/02 07:02:44;;;;;;;62.95;33.50;;;;;;;13.28;100.00;100999.28;1780634;78;25914;-78
2022/11/02 07:05:11;;;;;;;64.25;34.45;;;;;;;13.26;100.00;100999.98;1785735;78;28631;-79
2022/11/02 07:07:38;;;;;;;65.40;35.92;;;;;;;13.27;100.00;101004.86;1785570;79;25854;-79
2022/11/02 07:10:08;;;;;;;69.45;35.78;;;;;;;13.28;100.00;101008.69;1776671;79;26426;-79
2022/11/02 07:12:33;;;;;;;71.45;38.50;;;;;;;13.28;100.00;101008.69;1791699;79;26389;-79
2022/11/02 07:15:00;;;;;;;65.00;38.35;;;;;;;13.28;100.00;101003.31;1772813;79;26288;-79
2022/11/02 07:17:26;;;;;;;70.40;37.80;;;;;;;13.27;100.00;101005.70;1779092;78;27505;-80
2022/11/02 07:19:52;;;;;;;69.58;38.48;;;;;;;13.28;100.00;101009.23;1778461;78;25854;-79
2022/11/02 07:22:20;;;;;;;61.33;36.60;;;;;;;13.26;100.00;101013.44;1749366;80;25776;-79
2022/11/02 07:24:46;;;;;;;67.97;37.73;;;;;;;13.27;100.00;101012.93;1763631;80;25774;-79
2022/11/02 07:27:13;;;;;;;66.57;36.23;;;;;;;13.27;100.00;101014.28;1767927;80;25755;-78
2022/11/02 07:29:39;;;;;;;61.80;36.50;;;;;;;13.28;100.00;101014.07;1769623;79;27433;-78
2022/11/02 07:32:07;;;;;;;59.38;35.17;;;;;;;13.30;100.00;101017.40;1760326;79;25998;-82
2022/11/02 07:34:36;;;;;;;58.35;36.13;;;;;;;13.32;100.00;101015.38;1764536;79;26464;-85
2022/11/02 07:37:02;;;;;;;59.48;34.15;;;;;;;13.34;100.00;101019.20;1753974;80;25854;-84
2022/11/02 07:39:28;;;;;;;56.92;34.70;;;;;;;13.36;100.00;101022.03;1756157;80;25311;-84
2022/11/02 07:41:54;;;;;;;57.05;37.00;;;;;;;13.39;100.00;101018.09;1759347;79;28259;-86
2022/11/02 07:44:22;;;;;;;55.78;35.23;;;;;;;13.40;100.00;101017.08;1763118;79;25783;-85
2022/11/02 07:46:54;;;;;;;61.77;37.40;;;;;;;13.39;100.00;101020.28;1752984;80;25785;-85
2022/11/02 07:49:21;;;;;;;56.92;33.53;;;;;;;13.39;100.00;101017.59;1753570;79;26125;-84
2022/11/02 07:51:47;;;;;;;55.05;34.45;;;;;;;13.41;100.00;101021.45;1767260;79;25650;-85
2022/11/02 07:54:13;;;;;;;54.05;34.27;;;;;;;13.40;100.00;101020.61;1738392;80;27726;-86
2022/11/02 07:56:40;;;;;;;59.13;34.35;;;;;;;13.44;100.00;101021.88;1769782;80;25900;-86
2022/11/02 07:59:16;;;;;;;61.02;35.03;;;;;;;13.47;100.00;101027.39;1779164;79;25856;-90
2022/11/02 08:01:44;;;;;;;55.90;33.60;;;;;;;13.51;100.00;101019.25;1765248;79;26106;-85
2022/11/02 08:04:10;;;;;;;55.00;32.60;;;;;;;13.54;100.00;101016.98;1763028;79;25254;-87
2022/11/02 08:06:36;;;;;;;65.30;40.88;;;;;;;13.56;100.00;101018.12;1799710;77;27444;-79
2022/11/02 08:09:03;;;;;;;70.83;44.55;;;;;;;13.57;100.00;101017.11;1772450;79;26211;-80
2022/11/02 08:11:31;;;;;;;63.95;41.30;;;;;;;13.58;100.00;101022.83;1797372;78;25251;-80
2022/11/02 08:13:57;;;;;;;53.95;33.70;;;;;;;13.60;100.00;101014.84;1744152;80;25792;-84
2022/11/02 08:16:24;;;;;;;58.20;34.63;;;;;;;13.64;100.00;101018.00;1736878;80;25837;-79
2022/11/02 08:18:52;;;;;;;58.05;33.75;;;;;;;13.66;100.00;101019.47;1748611;80;26903;-84
2022/11/02 08:21:18;;;;;;;52.35;31.00;;;;;;;13.69;100.00;101016.87;1748095;80;25923;-84
2022/11/02 08:23:45;;;;;;;55.08;30.23;;;;;;;13.67;100.00;101018.94;1775269;78;25317;-79
2022/11/02 08:26:11;;;;;;;49.18;32.35;;;;;;;13.66;100.00;101014.59;1784219;78;25882;-79
2022/11/02 08:28:39;;;;;;;51.58;30.82;;;;;;;13.67;100.00;101018.94;1792732;77;26364;-80
2022/11/02 08:31:14;;;;;;;53.02;31.30;;;;;;;13.66;100.00;101014.59;1736770;80;28017;-80
2022/11/02 08:33:42;;;;;;;49.58;30.48;;;;;;;13.67;100.00;101012.20;1797426;77;25872;-79
2022/11/02 08:36:09;;;;;;;55.55;33.23;;;;;;;13.67;100.00;101002.28;1749917;80;25740;-79
2022/11/02 08:38:38;;;;;;;57.48;32.08;;;;;;;13.69;100.00;101003.41;1801685;78;26551;-80
2022/11/02 08:41:04;;;;;;;50.30;28.55;;;;;;;13.71;100.00;101007.58;1739895;80;25334;-80
2022/11/02 08:43:31;;;;;;;47.90;27.70;;;;;;;13.72;100.00;101014.64;1799327;77;27424;-79
2022/11/02 08:45:59;;;;;;;46.05;26.73;;;;;;;13.70;100.00;101009.13;1789470;77;26434;-80
2022/11/02 08:48:26;;;;;;;46.63;27.05;;;;;;;13.70;100.00;101009.97;1756857;80;25890;-79
2022/11/02 08:50:52;;;;;;;47.83;24.90;;;;;;;13.74;100.00;101004.50;1800062;77;25476;-80
2022/11/02 08:53:18;;;;;;;45.90;27.15;;;;;;;13.77;100.00;101004.09;1785142;77;25896;-79
2022/11/02 08:55:45;;;;;;;48.58;27.60;;;;;;;13.79;100.00;101007.95;1787280;77;27260;-80
2022/11/02 08:58:11;;;;;;;48.73;28.42;;;;;;;13.78;100.00;101003.59;1786792;77;25700;-80
2022/11/02 09:00:37;;;;;;;47.70;28.00;;;;;;;13.79;100.00;101008.77;1790847;78;26083;-79
2022/11/02 09:03:11;;;;;;;44.13;27.27;;;;;;;13.78;100.00;101008.47;1788370;78;25712;-79
2022/11/02 09:05:41;;;;;;;49.00;29.20;;;;;;;13.78;100.00;101010.31;1750558;79;26527;-79
2022/11/02 09:08:15;;;;;;;46.50;27.65;;;;;;;13.78;100.00;101009.81;1771479;78;28498;-80
2022/11/02 09:10:42;;;;;;;50.23;28.95;;;;;;;13.78;100.00;101001.73;1788881;77;25826;-79
2022/11/02 09:13:12;;;;;;;50.25;30.80;;;;;;;13.78;100.00;100999.04;1743368;79;26134;-80
2022/11/02 09:15:40;;;;;;;48.42;30.32;;;;;;;13.83;100.00;101005.19;1784278;78;26405;-79
2022/11/02 09:18:07;;;;;;;51.08;28.55;;;;;;;13.85;100.00;101001.27;1740370;80;25746;-79
2022/11/02 09:20:34;;;;;;;47.73;28.40;;;;;;;13.85;100.00;100997.23;1745150;80;27413;-79
2022/11/02 09:23:00;;;;;;;46.88;28.80;;;;;;;13.88;100.00;100995.97;1785708;79;25851;-80
2022/11/02 09:25:27;;;;;;;57.58;31.50;;;;;;;13.90;100.00;100993.41;1746580;79;25289;-80
2022/11/02 09:27:56;;;;;;;50.00;28.92;;;;;;;13.96;100.00;101001.73;1785912;78;25845;-79
2022/11/02 09:30:24;;;;;;;50.12;28.92;;;;;;;13.99;100.00;100996.77;1787282;77;26271;-79
2022/11/02 09:33:00;;;;;;;49.93;30.27;;;;;;;14.02;100.00;100999.58;1794509;77;27429;-79
2022/11/02 09:35:30;;;;;;;50.90;30.05;;;;;;;14.04;100.00;101004.25;1783732;77;25908;-79
2022/11/02 09:37:56;;;;;;;43.33;25.53;;;;;;;14.06;100.00;100997.64;1788666;77;25793;-79
2022/11/02 09:40:26;;;;;;;40.88;24.20;;;;;;;14.06;100.00;101000.84;1796635;78;26669;-81
2022/11/02 09:43:19;;;;;;;37.88;24.43;;;;;;;14.05;100.00;101000.55;1767555;80;25862;-83
2022/11/02 09:46:08;;;;;;;33.02;22.48;;;;;;;14.05;100.00;101006.73;1776717;78;27421;-80
2022/11/02 09:48:48;;;;;;;36.63;22.90;;;;;;;14.04;100.00;101002.91;1751288;80;25958;-78
2022/11/02 09:51:25;;;;;;;36.17;23.90;;;;;;;14.03;100.00;101004.76;1789080;77;25812;-79
2022/11/02 09:54:40;;;;;;;37.15;24.90;;;;;;;14.01;100.00;101012.21;1788111;77;26440;-79
2022/11/02 09:57:31;;;;;;;42.55;23.05;;;;;;;14.01;100.00;101012.75;1787639;77;26528;-78
2022/11/02 09:59:57;;;;;;;35.00;23.57;;;;;;;14.01;100.00;101011.41;1786059;77;27422;-79
2022/11/02 10:03:02;;;;;;;38.45;23.65;;;;;;;13.97;100.00;101012.80;1792662;77;25980;-81
2022/11/02 10:05:54;;;;;;;34.13;22.13;;;;;;;13.96;100.00;101013.34;1788631;77;26402;-82
2022/11/02 10:08:46;;;;;;;38.20;23.27;;;;;;;13.92;100.00;101012.08;1805479;77;25837;-84
2022/11/02 10:12:09;;;;;;;39.75;24.92;;;;;;;13.93;100.00;101015.07;1805453;78;26505;-79
2022/11/02 10:14:40;;;;;;;44.55;25.95;;;;;;;13.93;100.00;101015.07;1820103;78;27527;-79
2022/11/02 10:17:17;;;;;;;38.30;25.60;;;;;;;13.92;100.00;101010.73;1777071;79;25880;-80
2022/11/02 10:19:49;;;;;;;39.73;25.40;;;;;;;13.94;100.00;101017.56;1804483;77;25939;-79
2022/11/02 10:22:16;;;;;;;36.80;26.10;;;;;;;13.97;100.00;101010.11;1807155;77;25510;-78
2022/11/02 10:24:45;;;;;;;36.40;24.02;;;;;;;13.98;100.00;101017.17;1816274;77;25832;-77
2022/11/02 10:27:26;;;;;;;38.90;24.60;;;;;;;14.00;100.00;101015.11;1814950;77;28268;-78
2022/11/02 10:30:18;;;;;;;37.07;22.33;;;;;;;14.01;100.00;101020.83;1814658;77;25760;-79
2022/11/02 10:32:50;;;;;;;33.20;23.55;;;;;;;14.01;100.00;101019.48;1808776;77;25742;-78
2022/11/02 10:35:36;;;;;;;30.77;22.30;;;;;;;14.03;100.00;101029.00;1811650;78;25499;-79
2022/11/02 10:38:26;;;;;;;34.43;22.17;;;;;;;14.06;100.00;101023.23;1792167;77;25878;-78
2022/11/02 10:41:06;;;;;;;33.98;23.65;;;;;;;14.06;100.00;101021.89;1778077;78;27441;-78
2022/11/02 10:43:38;;;;;;;33.05;22.37;;;;;;;14.07;100.00;101025.42;1815843;77;26008;-78
2022/11/02 10:46:22;;;;;;;35.40;21.35;;;;;;;14.10;100.00;101027.70;1803855;77;25933;-78
2022/11/02 10:49:13;;;;;;;33.95;21.02;;;;;;;14.10;100.00;101031.23;1820262;78;26220;-79
2022/11/02 10:51:40;;;;;;;35.98;22.93;;;;;;;14.09;100.00;101029.58;1804493;78;25781;-79
2022/11/02 10:54:13;;;;;;;31.55;23.15;;;;;;;14.09;100.00;101024.70;1784172;78;28342;-78
2022/11/02 10:56:45;;;;;;;34.75;21.73;;;;;;;14.09;100.00;101029.58;1800183;77;26450;-80
2022/11/02 10:59:17;;;;;;;29.67;21.80;;;;;;;14.09;100.00;101028.23;1815348;77;25726;-79
2022/11/02 11:02:01;;;;;;;30.90;20.92;;;;;;;14.13;100.00;101019.23;1774988;79;25764;-78
2022/11/02 11:04:31;;;;;;;32.93;22.42;;;;;;;14.16;100.00;101021.50;1781966;78;25820;-80
2022/11/02 11:07:12;;;;;;;31.87;20.85;;;;;;;14.19;100.00;101021.95;1810098;77;27442;-79
2022/11/02 11:09:52;;;;;;;30.77;21.27;;;;;;;14.21;100.00;101013.16;1815597;77;26404;-80
2022/11/02 11:12:37;;;;;;;32.50;23.05;;;;;;;14.22;100.00;101017.50;1817476;77;25769;-79
2022/11/02 11:15:05;;;;;;;35.38;23.35;;;;;;;14.23;100.00;101012.44;1836808;77;25688;-78
2022/11/02 11:17:36;;;;;;;34.67;22.98;;;;;;;14.26;100.00;101012.05;1782681;78;26565;-79
2022/11/02 11:20:06;;;;;;;32.30;22.48;;;;;;;14.27;100.00;101008.81;1823363;77;26885;-79
2022/11/02 11:22:37;;;;;;;34.13;22.20;;;;;;;14.27;100.00;101015.55;1822309;77;25839;-79
2022/11/02 11:25:22;;;;;;;31.23;22.70;;;;;;;14.28;100.00;101014.53;1827834;77;25739;-80
2022/11/02 11:27:53;;;;;;;33.40;23.15;;;;;;;14.30;100.00;101005.77;1810956;77;26787;-79
2022/11/02 11:30:30;;;;;;;33.42;22.75;;;;;;;14.33;100.00;101002.65;1827874;77;26060;-80
2022/11/02 11:32:59;;;;;;;32.13;21.20;;;;;;;14.40;100.00;100998.97;1817169;76;27438;-79
2022/11/02 11:35:37;;;;;;;34.13;22.75;;;;;;;14.48;100.00;100996.08;1809921;77;26624;-79
2022/11/02 11:38:17;;;;;;;31.33;20.50;;;;;;;14.54;100.00;100997.96;1819087;77;25963;-79